sensor_id;sensor_type;location;lat;lon;timestamp;P1;durP1;ratioP1;P2;durP2;ratioP2
14748;SDS011;7466;53.574;9.976;2023-04-24T00:00:12;9.47;;;8.67;;
14748;SDS011;7466;53.574;9.976;2023-04-24T00:02:40;9.37;;;8.67;;
14748;SDS011;7466;53.574;9.976;2023-04-24T00:05:11;9.10;;;8.50;;
14748;SDS011;7466;53.574;9.976;2023-04-24T00:07:39;10.00;;;9.07;;
14748;SDS011;7466;53.574;9.976;2023-04-24T00:10:06;9.20;;;8.50;;
14748;SDS011;7466;53.574;9.976;2023-04-24T00:12:34;9.50;;;8.80;;
14748;SDS011;7466;53.574;9.976;2023-04-24T00:15:02;9.07;;;8.40;;
14748;SDS011;7466;53.574;9.976;2023-04-24T00:17:30;9.80;;;9.00;;
14748;SDS011;7466;53.574;9.976;2023-04-24T00:20:01;9.67;;;8.97;;
14748;SDS011;7466;53.574;9.976;2023-04-24T00:22:35;9.20;;;8.60;;
14748;SDS011;7466;53.574;9.976;2023-04-24T00:25:02;9.13;;;8.43;;
14748;SDS011;7466;53.574;9.976;2023-04-24T00:27:30;9.17;;;8.43;;
14748;SDS011;7466;53.574;9.976;2023-04-24T00:29:57;9.10;;;8.50;;
14748;SDS011;7466;53.574;9.976;2023-04-24T00:32:25;8.93;;;8.20;;
14748;SDS011;7466;53.574;9.976;2023-04-24T00:34:52;9.40;;;8.57;;
14748;SDS011;7466;53.574;9.976;2023-04-24T00:37:19;8.73;;;8.13;;
14748;SDS011;7466;53.574;9.976;2023-04-24T00:39:46;9.17;;;8.43;;
14748;SDS011;7466;53.574;9.976;2023-04-24T00:42:13;8.67;;;7.93;;
14748;SDS011;7466;53.574;9.976;2023-04-24T00:44:40;8.93;;;8.23;;
14748;SDS011;7466;53.574;9.976;2023-04-24T00:47:07;9.07;;;8.23;;
14748;SDS011;7466;53.574;9.976;2023-04-24T00:49:35;9.23;;;8.53;;
14748;SDS011;7466;53.574;9.976;2023-04-24T00:52:23;8.77;;;8.07;;
14748;SDS011;7466;53.574;9.976;2023-04-24T00:54:50;9.37;;;8.70;;
14748;SDS011;7466;53.574;9.976;2023-04-24T00:57:20;9.10;;;8.40;;
14748;SDS011;7466;53.574;9.976;2023-04-24T00:59:48;8.77;;;8.17;;
14748;SDS011;7466;53.574;9.976;2023-04-24T01:02:15;9.50;;;8.80;;
14748;SDS011;7466;53.574;9.976;2023-04-24T01:04:44;9.77;;;9.10;;
14748;SDS011;7466;53.574;9.976;2023-04-24T01:07:11;8.73;;;8.03;;
14748;SDS011;7466;53.574;9.976;2023-04-24T01:09:38;9.27;;;8.57;;
14748;SDS011;7466;53.574;9.976;2023-04-24T01:12:20;9.10;;;8.40;;
14748;SDS011;7466;53.574;9.976;2023-04-24T01:14:53;8.77;;;8.13;;
14748;SDS011;7466;53.574;9.976;2023-04-24T01:17:21;8.20;;;7.60;;
14748;SDS011;7466;53.574;9.976;2023-04-24T01:19:50;8.10;;;7.50;;
14748;SDS011;7466;53.574;9.976;2023-04-24T01:22:20;7.87;;;7.10;;
14748;SDS011;7466;53.574;9.976;2023-04-24T01:24:47;7.13;;;6.63;;
14748;SDS011;7466;53.574;9.976;2023-04-24T01:27:16;7.33;;;6.80;;
14748;SDS011;7466;53.574;9.976;2023-04-24T01:29:43;7.63;;;7.13;;
14748;SDS011;7466;53.574;9.976;2023-04-24T01:32:11;6.87;;;6.40;;
14748;SDS011;7466;53.574;9.976;2023-04-24T01:34:38;6.73;;;6.33;;
14748;SDS011;7466;53.574;9.976;2023-04-24T01:37:06;6.90;;;6.33;;
14748;SDS011;7466;53.574;9.976;2023-04-24T01:39:34;6.70;;;6.10;;
14748;SDS011;7466;53.574;9.976;2023-04-24T01:42:02;6.73;;;6.13;;
14748;SDS011;7466;53.574;9.976;2023-04-24T01:44:33;6.80;;;6.30;;
14748;SDS011;7466;53.574;9.976;2023-04-24T01:47:00;5.80;;;5.37;;
14748;SDS011;7466;53.574;9.976;2023-04-24T01:49:40;5.77;;;5.27;;
14748;SDS011;7466;53.574;9.976;2023-04-24T01:52:07;6.30;;;5.80;;
14748;SDS011;7466;53.574;9.976;2023-04-24T01:54:35;5.97;;;5.07;;
14748;SDS011;7466;53.574;9.976;2023-04-24T01:57:02;6.10;;;5.60;;
14748;SDS011;7466;53.574;9.976;2023-04-24T01:59:29;4.83;;;4.43;;
14748;SDS011;7466;53.574;9.976;2023-04-24T02:01:59;5.00;;;4.60;;
14748;SDS011;7466;53.574;9.976;2023-04-24T02:04:26;4.27;;;3.97;;
14748;SDS011;7466;53.574;9.976;2023-04-24T02:06:53;4.10;;;3.80;;
14748;SDS011;7466;53.574;9.976;2023-04-24T02:09:20;4.00;;;3.70;;
14748;SDS011;7466;53.574;9.976;2023-04-24T02:11:48;3.83;;;3.53;;
14748;SDS011;7466;53.574;9.976;2023-04-24T02:14:15;3.47;;;3.17;;
14748;SDS011;7466;53.574;9.976;2023-04-24T02:16:42;3.57;;;3.37;;
14748;SDS011;7466;53.574;9.976;2023-04-24T02:19:10;2.80;;;2.70;;
14748;SDS011;7466;53.574;9.976;2023-04-24T02:21:37;8.03;;;2.97;;
14748;SDS011;7466;53.574;9.976;2023-04-24T02:24:07;3.20;;;3.00;;
14748;SDS011;7466;53.574;9.976;2023-04-24T02:26:34;3.13;;;2.90;;
14748;SDS011;7466;53.574;9.976;2023-04-24T02:29:03;3.10;;;2.90;;
14748;SDS011;7466;53.574;9.976;2023-04-24T02:31:30;3.40;;;3.20;;
14748;SDS011;7466;53.574;9.976;2023-04-24T02:33:57;3.50;;;3.30;;
14748;SDS011;7466;53.574;9.976;2023-04-24T02:36:24;3.20;;;3.00;;
14748;SDS011;7466;53.574;9.976;2023-04-24T02:38:51;4.27;;;3.97;;
14748;SDS011;7466;53.574;9.976;2023-04-24T02:41:20;3.27;;;3.13;;
14748;SDS011;7466;53.574;9.976;2023-04-24T02:43:48;3.50;;;3.30;;
14748;SDS011;7466;53.574;9.976;2023-04-24T02:46:26;3.20;;;3.00;;
14748;SDS011;7466;53.574;9.976;2023-04-24T02:48:53;3.67;;;3.37;;
14748;SDS011;7466;53.574;9.976;2023-04-24T02:51:20;3.50;;;3.30;;
14748;SDS011;7466;53.574;9.976;2023-04-24T02:53:47;3.53;;;3.23;;
14748;SDS011;7466;53.574;9.976;2023-04-24T02:56:17;4.30;;;3.40;;
14748;SDS011;7466;53.574;9.976;2023-04-24T02:58:44;3.57;;;3.37;;
14748;SDS011;7466;53.574;9.976;2023-04-24T03:01:11;3.50;;;3.30;;
14748;SDS011;7466;53.574;9.976;2023-04-24T03:03:41;3.10;;;2.90;;
14748;SDS011;7466;53.574;9.976;2023-04-24T03:06:08;3.30;;;3.10;;
14748;SDS011;7466;53.574;9.976;2023-04-24T03:08:35;3.10;;;2.90;;
14748;SDS011;7466;53.574;9.976;2023-04-24T03:11:03;2.93;;;2.80;;
14748;SDS011;7466;53.574;9.976;2023-04-24T03:13:31;2.97;;;2.70;;
14748;SDS011;7466;53.574;9.976;2023-04-24T03:15:58;3.37;;;2.70;;
14748;SDS011;7466;53.574;9.976;2023-04-24T03:18:25;2.87;;;2.70;;
14748;SDS011;7466;53.574;9.976;2023-04-24T03:20:53;2.70;;;2.50;;
14748;SDS011;7466;53.574;9.976;2023-04-24T03:23:20;2.77;;;2.57;;
14748;SDS011;7466;53.574;9.976;2023-04-24T03:25:47;3.00;;;2.80;;
14748;SDS011;7466;53.574;9.976;2023-04-24T03:28:14;2.57;;;2.37;;
14748;SDS011;7466;53.574;9.976;2023-04-24T03:30:41;3.17;;;2.97;;
14748;SDS011;7466;53.574;9.976;2023-04-24T03:33:13;2.47;;;2.37;;
14748;SDS011;7466;53.574;9.976;2023-04-24T03:35:46;2.90;;;2.80;;
14748;SDS011;7466;53.574;9.976;2023-04-24T03:38:15;2.43;;;2.33;;
14748;SDS011;7466;53.574;9.976;2023-04-24T03:40:51;2.73;;;2.53;;
14748;SDS011;7466;53.574;9.976;2023-04-24T03:43:18;2.93;;;2.73;;
14748;SDS011;7466;53.574;9.976;2023-04-24T03:45:47;3.43;;;2.97;;
14748;SDS011;7466;53.574;9.976;2023-04-24T03:48:14;2.63;;;2.50;;
14748;SDS011;7466;53.574;9.976;2023-04-24T03:50:41;2.60;;;2.40;;
14748;SDS011;7466;53.574;9.976;2023-04-24T03:53:08;2.43;;;2.33;;
14748;SDS011;7466;53.574;9.976;2023-04-24T03:55:36;2.53;;;2.40;;
14748;SDS011;7466;53.574;9.976;2023-04-24T03:58:04;2.77;;;2.60;;
14748;SDS011;7466;53.574;9.976;2023-04-24T04:00:33;2.80;;;2.40;;
14748;SDS011;7466;53.574;9.976;2023-04-24T04:02:59;2.80;;;2.60;;
14748;SDS011;7466;53.574;9.976;2023-04-24T04:05:26;2.30;;;2.20;;
14748;SDS011;7466;53.574;9.976;2023-04-24T04:07:53;2.40;;;2.30;;
14748;SDS011;7466;53.574;9.976;2023-04-24T04:10:20;2.97;;;2.33;;
14748;SDS011;7466;53.574;9.976;2023-04-24T04:12:51;2.60;;;2.00;;
14748;SDS011;7466;53.574;9.976;2023-04-24T04:15:18;2.10;;;2.00;;
14748;SDS011;7466;53.574;9.976;2023-04-24T04:17:44;2.27;;;2.10;;
14748;SDS011;7466;53.574;9.976;2023-04-24T04:20:11;1.80;;;1.70;;
14748;SDS011;7466;53.574;9.976;2023-04-24T04:22:38;2.27;;;2.03;;
14748;SDS011;7466;53.574;9.976;2023-04-24T04:25:08;2.13;;;2.03;;
14748;SDS011;7466;53.574;9.976;2023-04-24T04:27:36;2.07;;;1.97;;
14748;SDS011;7466;53.574;9.976;2023-04-24T04:30:06;2.03;;;1.80;;
14748;SDS011;7466;53.574;9.976;2023-04-24T04:32:34;2.37;;;2.03;;
14748;SDS011;7466;53.574;9.976;2023-04-24T04:35:02;3.17;;;1.60;;
14748;SDS011;7466;53.574;9.976;2023-04-24T04:37:30;2.03;;;1.90;;
14748;SDS011;7466;53.574;9.976;2023-04-24T04:40:00;1.90;;;1.80;;
14748;SDS011;7466;53.574;9.976;2023-04-24T04:42:31;2.03;;;1.90;;
14748;SDS011;7466;53.574;9.976;2023-04-24T04:44:59;1.93;;;1.83;;
14748;SDS011;7466;53.574;9.976;2023-04-24T04:47:34;1.80;;;1.70;;
14748;SDS011;7466;53.574;9.976;2023-04-24T04:50:01;4.60;;;1.70;;
14748;SDS011;7466;53.574;9.976;2023-04-24T04:52:30;2.50;;;1.70;;
14748;SDS011;7466;53.574;9.976;2023-04-24T04:54:57;2.10;;;1.50;;
14748;SDS011;7466;53.574;9.976;2023-04-24T04:57:24;1.60;;;1.50;;
14748;SDS011;7466;53.574;9.976;2023-04-24T04:59:51;1.90;;;1.80;;
14748;SDS011;7466;53.574;9.976;2023-04-24T05:02:18;2.17;;;1.97;;
14748;SDS011;7466;53.574;9.976;2023-04-24T05:04:47;2.00;;;1.90;;
14748;SDS011;7466;53.574;9.976;2023-04-24T05:07:14;2.10;;;2.00;;
14748;SDS011;7466;53.574;9.976;2023-04-24T05:09:40;1.67;;;1.57;;
14748;SDS011;7466;53.574;9.976;2023-04-24T05:12:07;1.97;;;1.80;;
14748;SDS011;7466;53.574;9.976;2023-04-24T05:14:34;2.00;;;1.90;;
14748;SDS011;7466;53.574;9.976;2023-04-24T05:17:01;2.17;;;2.07;;
14748;SDS011;7466;53.574;9.976;2023-04-24T05:19:28;1.83;;;1.70;;
14748;SDS011;7466;53.574;9.976;2023-04-24T05:21:56;1.67;;;1.60;;
14748;SDS011;7466;53.574;9.976;2023-04-24T05:24:23;2.03;;;1.80;;
14748;SDS011;7466;53.574;9.976;2023-04-24T05:26:50;1.87;;;1.77;;
14748;SDS011;7466;53.574;9.976;2023-04-24T05:29:17;1.63;;;1.63;;
14748;SDS011;7466;53.574;9.976;2023-04-24T05:31:45;1.70;;;1.60;;
14748;SDS011;7466;53.574;9.976;2023-04-24T05:34:12;4.20;;;1.77;;
14748;SDS011;7466;53.574;9.976;2023-04-24T05:36:39;1.60;;;1.50;;
14748;SDS011;7466;53.574;9.976;2023-04-24T05:39:08;1.90;;;1.37;;
14748;SDS011;7466;53.574;9.976;2023-04-24T05:41:35;1.53;;;1.47;;
14748;SDS011;7466;53.574;9.976;2023-04-24T05:44:01;1.73;;;1.63;;
14748;SDS011;7466;53.574;9.976;2023-04-24T05:46:28;1.83;;;1.73;;
14748;SDS011;7466;53.574;9.976;2023-04-24T05:48:55;1.83;;;1.73;;
14748;SDS011;7466;53.574;9.976;2023-04-24T05:51:22;1.60;;;1.50;;
14748;SDS011;7466;53.574;9.976;2023-04-24T05:53:49;1.60;;;1.50;;
14748;SDS011;7466;53.574;9.976;2023-04-24T05:56:17;3.77;;;1.80;;
14748;SDS011;7466;53.574;9.976;2023-04-24T05:58:45;1.80;;;1.70;;
14748;SDS011;7466;53.574;9.976;2023-04-24T06:01:12;2.40;;;2.20;;
14748;SDS011;7466;53.574;9.976;2023-04-24T06:03:40;1.70;;;1.60;;
14748;SDS011;7466;53.574;9.976;2023-04-24T06:06:08;1.70;;;1.60;;
14748;SDS011;7466;53.574;9.976;2023-04-24T06:08:38;2.17;;;1.87;;
14748;SDS011;7466;53.574;9.976;2023-04-24T06:11:05;1.90;;;1.80;;
14748;SDS011;7466;53.574;9.976;2023-04-24T06:13:33;2.40;;;2.20;;
14748;SDS011;7466;53.574;9.976;2023-04-24T06:16:00;1.90;;;1.80;;
14748;SDS011;7466;53.574;9.976;2023-04-24T06:18:27;3.67;;;2.07;;
14748;SDS011;7466;53.574;9.976;2023-04-24T06:20:56;1.83;;;1.73;;
14748;SDS011;7466;53.574;9.976;2023-04-24T06:23:23;1.90;;;1.80;;
14748;SDS011;7466;53.574;9.976;2023-04-24T06:25:50;1.60;;;1.50;;
14748;SDS011;7466;53.574;9.976;2023-04-24T06:28:17;3.77;;;1.70;;
14748;SDS011;7466;53.574;9.976;2023-04-24T06:30:46;4.57;;;1.80;;
14748;SDS011;7466;53.574;9.976;2023-04-24T06:33:13;2.00;;;1.80;;
14748;SDS011;7466;53.574;9.976;2023-04-24T06:35:43;2.83;;;2.00;;
14748;SDS011;7466;53.574;9.976;2023-04-24T06:38:12;3.53;;;2.37;;
14748;SDS011;7466;53.574;9.976;2023-04-24T06:40:41;4.00;;;2.20;;
14748;SDS011;7466;53.574;9.976;2023-04-24T06:43:07;2.10;;;2.00;;
14748;SDS011;7466;53.574;9.976;2023-04-24T06:45:35;2.20;;;2.00;;
14748;SDS011;7466;53.574;9.976;2023-04-24T06:48:05;2.50;;;1.83;;
14748;SDS011;7466;53.574;9.976;2023-04-24T06:50:33;2.03;;;1.93;;
14748;SDS011;7466;53.574;9.976;2023-04-24T06:53:00;2.33;;;2.23;;
14748;SDS011;7466;53.574;9.976;2023-04-24T06:55:27;2.60;;;2.37;;
14748;SDS011;7466;53.574;9.976;2023-04-24T06:57:54;2.07;;;1.97;;
14748;SDS011;7466;53.574;9.976;2023-04-24T07:00:24;2.33;;;2.13;;
14748;SDS011;7466;53.574;9.976;2023-04-24T07:03:01;2.53;;;2.33;;
14748;SDS011;7466;53.574;9.976;2023-04-24T07:05:31;2.50;;;2.30;;
14748;SDS011;7466;53.574;9.976;2023-04-24T07:08:02;2.63;;;2.50;;
14748;SDS011;7466;53.574;9.976;2023-04-24T07:10:31;2.77;;;2.57;;
14748;SDS011;7466;53.574;9.976;2023-04-24T07:13:00;3.03;;;2.83;;
14748;SDS011;7466;53.574;9.976;2023-04-24T07:15:27;2.73;;;2.53;;
14748;SDS011;7466;53.574;9.976;2023-04-24T07:17:54;3.73;;;2.97;;
14748;SDS011;7466;53.574;9.976;2023-04-24T07:20:21;2.90;;;2.70;;
14748;SDS011;7466;53.574;9.976;2023-04-24T07:22:49;3.03;;;2.83;;
14748;SDS011;7466;53.574;9.976;2023-04-24T07:25:19;3.17;;;2.97;;
14748;SDS011;7466;53.574;9.976;2023-04-24T07:27:46;3.07;;;2.83;;
14748;SDS011;7466;53.574;9.976;2023-04-24T07:30:14;2.83;;;2.73;;
14748;SDS011;7466;53.574;9.976;2023-04-24T07:32:41;3.20;;;3.00;;
14748;SDS011;7466;53.574;9.976;2023-04-24T07:35:08;3.70;;;3.23;;
14748;SDS011;7466;53.574;9.976;2023-04-24T07:37:35;3.60;;;3.23;;
14748;SDS011;7466;53.574;9.976;2023-04-24T07:40:04;3.17;;;2.97;;
14748;SDS011;7466;53.574;9.976;2023-04-24T07:45:16;3.67;;;3.30;;
14748;SDS011;7466;53.574;9.976;2023-04-24T07:47:43;4.00;;;3.80;;
14748;SDS011;7466;53.574;9.976;2023-04-24T07:50:10;4.00;;;3.70;;
14748;SDS011;7466;53.574;9.976;2023-04-24T07:52:38;4.17;;;3.90;;
14748;SDS011;7466;53.574;9.976;2023-04-24T07:55:07;3.83;;;3.63;;
14748;SDS011;7466;53.574;9.976;2023-04-24T07:57:34;4.40;;;4.10;;
14748;SDS011;7466;53.574;9.976;2023-04-24T08:00:02;4.43;;;4.13;;
14748;SDS011;7466;53.574;9.976;2023-04-24T08:02:30;4.60;;;4.20;;
14748;SDS011;7466;53.574;9.976;2023-04-24T08:04:58;4.60;;;4.23;;
14748;SDS011;7466;53.574;9.976;2023-04-24T08:07:25;4.40;;;4.10;;
14748;SDS011;7466;53.574;9.976;2023-04-24T08:09:52;4.73;;;4.43;;
14748;SDS011;7466;53.574;9.976;2023-04-24T08:12:20;4.67;;;4.37;;
14748;SDS011;7466;53.574;9.976;2023-04-24T08:14:47;4.77;;;4.47;;
14748;SDS011;7466;53.574;9.976;2023-04-24T08:17:14;4.60;;;4.20;;
14748;SDS011;7466;53.574;9.976;2023-04-24T08:19:41;4.70;;;4.40;;
14748;SDS011;7466;53.574;9.976;2023-04-24T08:22:13;6.57;;;5.20;;
14748;SDS011;7466;53.574;9.976;2023-04-24T08:24:46;5.23;;;4.90;;
14748;SDS011;7466;53.574;9.976;2023-04-24T08:27:13;5.63;;;5.13;;
14748;SDS011;7466;53.574;9.976;2023-04-24T08:29:41;5.97;;;5.57;;
14748;SDS011;7466;53.574;9.976;2023-04-24T08:32:08;8.40;;;5.10;;
14748;SDS011;7466;53.574;9.976;2023-04-24T08:34:35;5.37;;;4.90;;
14748;SDS011;7466;53.574;9.976;2023-04-24T08:37:02;5.10;;;4.70;;
14748;SDS011;7466;53.574;9.976;2023-04-24T08:39:29;4.73;;;4.43;;
14748;SDS011;7466;53.574;9.976;2023-04-24T08:41:56;4.50;;;4.20;;
14748;SDS011;7466;53.574;9.976;2023-04-24T08:44:30;4.90;;;4.53;;
14748;SDS011;7466;53.574;9.976;2023-04-24T08:46:59;5.27;;;4.30;;
14748;SDS011;7466;53.574;9.976;2023-04-24T08:49:28;5.97;;;5.20;;
14748;SDS011;7466;53.574;9.976;2023-04-24T08:51:55;5.10;;;4.80;;
14748;SDS011;7466;53.574;9.976;2023-04-24T08:54:22;5.40;;;5.00;;
14748;SDS011;7466;53.574;9.976;2023-04-24T08:56:51;5.80;;;5.20;;
14748;SDS011;7466;53.574;9.976;2023-04-24T08:59:26;5.87;;;5.57;;
14748;SDS011;7466;53.574;9.976;2023-04-24T09:01:54;6.40;;;5.90;;
14748;SDS011;7466;53.574;9.976;2023-04-24T09:04:23;6.33;;;5.83;;
14748;SDS011;7466;53.574;9.976;2023-04-24T09:06:50;6.40;;;5.80;;
14748;SDS011;7466;53.574;9.976;2023-04-24T09:09:18;5.80;;;5.47;;
14748;SDS011;7466;53.574;9.976;2023-04-24T09:11:45;5.80;;;5.40;;
14748;SDS011;7466;53.574;9.976;2023-04-24T09:14:15;6.73;;;6.17;;
14748;SDS011;7466;53.574;9.976;2023-04-24T09:16:42;6.20;;;5.80;;
14748;SDS011;7466;53.574;9.976;2023-04-24T09:19:09;6.10;;;5.70;;
14748;SDS011;7466;53.574;9.976;2023-04-24T09:21:37;5.67;;;5.27;;
14748;SDS011;7466;53.574;9.976;2023-04-24T09:24:07;5.90;;;5.40;;
14748;SDS011;7466;53.574;9.976;2023-04-24T09:26:42;5.50;;;5.20;;
14748;SDS011;7466;53.574;9.976;2023-04-24T09:29:13;5.47;;;5.10;;
14748;SDS011;7466;53.574;9.976;2023-04-24T09:31:44;6.23;;;5.63;;
14748;SDS011;7466;53.574;9.976;2023-04-24T09:34:20;6.47;;;5.43;;
14748;SDS011;7466;53.574;9.976;2023-04-24T09:36:50;5.93;;;5.53;;
14748;SDS011;7466;53.574;9.976;2023-04-24T09:39:18;5.97;;;5.40;;
14748;SDS011;7466;53.574;9.976;2023-04-24T09:41:46;8.17;;;5.10;;
14748;SDS011;7466;53.574;9.976;2023-04-24T09:44:15;5.67;;;5.17;;
14748;SDS011;7466;53.574;9.976;2023-04-24T09:46:50;5.87;;;5.30;;
14748;SDS011;7466;53.574;9.976;2023-04-24T09:49:22;6.15;;;5.75;;
14748;SDS011;7466;53.574;9.976;2023-04-24T09:51:52;6.15;;;5.75;;
14748;SDS011;7466;53.574;9.976;2023-04-24T09:54:28;6.70;;;6.20;;
14748;SDS011;7466;53.574;9.976;2023-04-24T09:56:55;7.60;;;6.87;;
14748;SDS011;7466;53.574;9.976;2023-04-24T09:59:22;7.80;;;7.20;;
14748;SDS011;7466;53.574;9.976;2023-04-24T10:01:49;7.87;;;7.13;;
14748;SDS011;7466;53.574;9.976;2023-04-24T10:04:17;7.80;;;7.10;;
14748;SDS011;7466;53.574;9.976;2023-04-24T10:06:46;7.93;;;7.33;;
14748;SDS011;7466;53.574;9.976;2023-04-24T10:09:16;7.63;;;7.07;;
14748;SDS011;7466;53.574;9.976;2023-04-24T10:11:45;7.73;;;7.13;;
14748;SDS011;7466;53.574;9.976;2023-04-24T10:14:14;8.43;;;7.87;;
14748;SDS011;7466;53.574;9.976;2023-04-24T10:16:42;8.77;;;8.13;;
14748;SDS011;7466;53.574;9.976;2023-04-24T10:19:12;9.20;;;8.50;;
14748;SDS011;7466;53.574;9.976;2023-04-24T10:21:40;8.73;;;8.03;;
14748;SDS011;7466;53.574;9.976;2023-04-24T10:24:11;9.23;;;8.37;;
14748;SDS011;7466;53.574;9.976;2023-04-24T10:26:43;9.73;;;8.83;;
14748;SDS011;7466;53.574;9.976;2023-04-24T10:29:13;9.87;;;9.03;;
14748;SDS011;7466;53.574;9.976;2023-04-24T10:31:41;11.40;;;9.87;;
14748;SDS011;7466;53.574;9.976;2023-04-24T10:34:10;14.13;;;12.40;;
14748;SDS011;7466;53.574;9.976;2023-04-24T10:36:38;25.80;;;17.37;;
14748;SDS011;7466;53.574;9.976;2023-04-24T10:39:10;10.37;;;9.47;;
14748;SDS011;7466;53.574;9.976;2023-04-24T10:41:42;12.73;;;11.07;;
14748;SDS011;7466;53.574;9.976;2023-04-24T10:44:12;13.87;;;10.77;;
14748;SDS011;7466;53.574;9.976;2023-04-24T10:46:43;12.13;;;10.80;;
14748;SDS011;7466;53.574;9.976;2023-04-24T10:49:11;12.57;;;11.30;;
14748;SDS011;7466;53.574;9.976;2023-04-24T10:51:44;14.87;;;10.80;;
14748;SDS011;7466;53.574;9.976;2023-04-24T10:54:23;12.30;;;10.40;;
14748;SDS011;7466;53.574;9.976;2023-04-24T10:56:52;11.37;;;10.40;;
14748;SDS011;7466;53.574;9.976;2023-04-24T10:59:40;12.13;;;10.80;;
14748;SDS011;7466;53.574;9.976;2023-04-24T11:02:09;12.67;;;11.57;;
14748;SDS011;7466;53.574;9.976;2023-04-24T11:04:36;11.17;;;10.17;;
14748;SDS011;7466;53.574;9.976;2023-04-24T11:07:03;11.33;;;10.13;;
14748;SDS011;7466;53.574;9.976;2023-04-24T11:09:31;11.93;;;9.70;;
14748;SDS011;7466;53.574;9.976;2023-04-24T11:12:05;10.67;;;9.43;;
14748;SDS011;7466;53.574;9.976;2023-04-24T11:17:30;11.87;;;10.17;;
14748;SDS011;7466;53.574;9.976;2023-04-24T11:20:02;10.50;;;9.60;;
14748;SDS011;7466;53.574;9.976;2023-04-24T11:22:32;10.27;;;9.27;;
14748;SDS011;7466;53.574;9.976;2023-04-24T11:25:01;10.00;;;8.97;;
14748;SDS011;7466;53.574;9.976;2023-04-24T11:27:31;12.00;;;9.00;;
14748;SDS011;7466;53.574;9.976;2023-04-24T11:30:05;9.87;;;9.13;;
14748;SDS011;7466;53.574;9.976;2023-04-24T11:32:35;9.23;;;8.20;;
14748;SDS011;7466;53.574;9.976;2023-04-24T11:35:04;10.50;;;9.60;;
14748;SDS011;7466;53.574;9.976;2023-04-24T11:37:39;9.63;;;8.70;;
14748;SDS011;7466;53.574;9.976;2023-04-24T11:40:07;9.60;;;8.90;;
14748;SDS011;7466;53.574;9.976;2023-04-24T11:42:38;9.83;;;9.00;;
14748;SDS011;7466;53.574;9.976;2023-04-24T11:45:09;10.27;;;9.47;;
14748;SDS011;7466;53.574;9.976;2023-04-24T11:47:37;10.33;;;9.47;;
14748;SDS011;7466;53.574;9.976;2023-04-24T11:50:06;10.10;;;9.30;;
14748;SDS011;7466;53.574;9.976;2023-04-24T11:52:36;9.87;;;8.97;;
14748;SDS011;7466;53.574;9.976;2023-04-24T11:55:06;9.70;;;8.90;;
14748;SDS011;7466;53.574;9.976;2023-04-24T11:57:33;9.33;;;8.53;;
14748;SDS011;7466;53.574;9.976;2023-04-24T12:00:03;8.90;;;8.17;;
14748;SDS011;7466;53.574;9.976;2023-04-24T12:02:31;8.40;;;7.80;;
14748;SDS011;7466;53.574;9.976;2023-04-24T12:04:58;7.63;;;7.10;;
14748;SDS011;7466;53.574;9.976;2023-04-24T12:07:25;7.07;;;6.57;;
14748;SDS011;7466;53.574;9.976;2023-04-24T12:09:56;9.00;;;6.93;;
14748;SDS011;7466;53.574;9.976;2023-04-24T12:12:24;7.83;;;7.23;;
14748;SDS011;7466;53.574;9.976;2023-04-24T12:14:53;7.70;;;6.90;;
14748;SDS011;7466;53.574;9.976;2023-04-24T12:17:26;7.50;;;6.90;;
14748;SDS011;7466;53.574;9.976;2023-04-24T12:19:56;7.47;;;6.80;;
14748;SDS011;7466;53.574;9.976;2023-04-24T12:22:24;7.40;;;6.90;;
14748;SDS011;7466;53.574;9.976;2023-04-24T12:24:57;7.70;;;6.90;;
14748;SDS011;7466;53.574;9.976;2023-04-24T12:27:25;7.17;;;6.57;;
14748;SDS011;7466;53.574;9.976;2023-04-24T12:29:53;6.63;;;5.90;;
14748;SDS011;7466;53.574;9.976;2023-04-24T12:32:22;7.23;;;6.60;;
14748;SDS011;7466;53.574;9.976;2023-04-24T12:34:51;7.70;;;7.03;;
14748;SDS011;7466;53.574;9.976;2023-04-24T12:37:18;8.30;;;7.43;;
14748;SDS011;7466;53.574;9.976;2023-04-24T12:40:01;8.03;;;7.33;;
14748;SDS011;7466;53.574;9.976;2023-04-24T12:42:31;7.40;;;6.90;;
14748;SDS011;7466;53.574;9.976;2023-04-24T12:44:59;7.90;;;7.30;;
14748;SDS011;7466;53.574;9.976;2023-04-24T12:47:27;8.53;;;7.03;;
14748;SDS011;7466;53.574;9.976;2023-04-24T12:49:57;7.90;;;7.10;;
14748;SDS011;7466;53.574;9.976;2023-04-24T12:52:24;8.43;;;7.47;;
14748;SDS011;7466;53.574;9.976;2023-04-24T12:54:52;7.47;;;6.97;;
14748;SDS011;7466;53.574;9.976;2023-04-24T12:57:20;7.50;;;6.90;;
14748;SDS011;7466;53.574;9.976;2023-04-24T12:59:47;7.67;;;7.07;;
14748;SDS011;7466;53.574;9.976;2023-04-24T13:02:17;7.53;;;7.03;;
14748;SDS011;7466;53.574;9.976;2023-04-24T13:04:44;7.53;;;7.03;;
14748;SDS011;7466;53.574;9.976;2023-04-24T13:07:13;8.00;;;7.30;;
14748;SDS011;7466;53.574;9.976;2023-04-24T13:09:41;7.47;;;6.97;;
14748;SDS011;7466;53.574;9.976;2023-04-24T13:12:08;7.80;;;7.20;;
14748;SDS011;7466;53.574;9.976;2023-04-24T13:14:35;7.43;;;6.93;;
14748;SDS011;7466;53.574;9.976;2023-04-24T13:17:03;7.37;;;6.77;;
14748;SDS011;7466;53.574;9.976;2023-04-24T13:19:36;7.03;;;6.43;;
14748;SDS011;7466;53.574;9.976;2023-04-24T13:22:04;6.80;;;6.30;;
14748;SDS011;7466;53.574;9.976;2023-04-24T13:24:33;6.40;;;6.00;;
14748;SDS011;7466;53.574;9.976;2023-04-24T13:27:04;6.40;;;6.00;;
14748;SDS011;7466;53.574;9.976;2023-04-24T13:29:31;7.23;;;6.57;;
14748;SDS011;7466;53.574;9.976;2023-04-24T13:31:59;6.70;;;5.90;;
14748;SDS011;7466;53.574;9.976;2023-04-24T13:34:29;6.13;;;5.70;;
14748;SDS011;7466;53.574;9.976;2023-04-24T13:36:57;5.97;;;5.50;;
14748;SDS011;7466;53.574;9.976;2023-04-24T13:39:24;6.07;;;5.57;;
14748;SDS011;7466;53.574;9.976;2023-04-24T13:41:53;6.20;;;5.80;;
14748;SDS011;7466;53.574;9.976;2023-04-24T13:44:21;6.50;;;6.10;;
14748;SDS011;7466;53.574;9.976;2023-04-24T13:46:50;5.90;;;5.30;;
14748;SDS011;7466;53.574;9.976;2023-04-24T13:49:19;5.73;;;5.37;;
14748;SDS011;7466;53.574;9.976;2023-04-24T13:51:46;5.90;;;5.50;;
14748;SDS011;7466;53.574;9.976;2023-04-24T13:54:13;5.30;;;4.90;;
14748;SDS011;7466;53.574;9.976;2023-04-24T13:56:41;4.73;;;4.43;;
14748;SDS011;7466;53.574;9.976;2023-04-24T13:59:09;5.50;;;5.10;;
14748;SDS011;7466;53.574;9.976;2023-04-24T14:01:38;5.50;;;5.10;;
14748;SDS011;7466;53.574;9.976;2023-04-24T14:04:05;5.47;;;5.17;;
14748;SDS011;7466;53.574;9.976;2023-04-24T14:06:32;6.47;;;6.03;;
14748;SDS011;7466;53.574;9.976;2023-04-24T14:09:04;6.00;;;5.60;;
14748;SDS011;7466;53.574;9.976;2023-04-24T14:11:32;5.67;;;5.27;;
14748;SDS011;7466;53.574;9.976;2023-04-24T14:14:01;5.73;;;5.00;;
14748;SDS011;7466;53.574;9.976;2023-04-24T14:16:29;5.30;;;5.00;;
14748;SDS011;7466;53.574;9.976;2023-04-24T14:18:56;5.17;;;4.87;;
14748;SDS011;7466;53.574;9.976;2023-04-24T14:21:23;5.63;;;5.20;;
14748;SDS011;7466;53.574;9.976;2023-04-24T14:23:50;5.50;;;5.10;;
14748;SDS011;7466;53.574;9.976;2023-04-24T14:26:17;5.40;;;5.10;;
14748;SDS011;7466;53.574;9.976;2023-04-24T14:28:45;5.97;;;5.57;;
14748;SDS011;7466;53.574;9.976;2023-04-24T14:31:12;5.40;;;5.00;;
14748;SDS011;7466;53.574;9.976;2023-04-24T14:33:41;6.20;;;5.73;;
14748;SDS011;7466;53.574;9.976;2023-04-24T14:36:08;6.70;;;6.30;;
14748;SDS011;7466;53.574;9.976;2023-04-24T14:38:35;6.70;;;6.30;;
14748;SDS011;7466;53.574;9.976;2023-04-24T14:41:02;7.47;;;6.97;;
14748;SDS011;7466;53.574;9.976;2023-04-24T14:43:34;8.53;;;7.93;;
14748;SDS011;7466;53.574;9.976;2023-04-24T14:46:01;8.43;;;7.90;;
14748;SDS011;7466;53.574;9.976;2023-04-24T14:48:28;8.57;;;8.03;;
14748;SDS011;7466;53.574;9.976;2023-04-24T14:50:56;10.43;;;9.30;;
14748;SDS011;7466;53.574;9.976;2023-04-24T14:53:24;10.03;;;9.33;;
14748;SDS011;7466;53.574;9.976;2023-04-24T14:55:51;11.50;;;10.60;;
14748;SDS011;7466;53.574;9.976;2023-04-24T14:58:18;11.10;;;10.07;;
14748;SDS011;7466;53.574;9.976;2023-04-24T15:00:47;12.17;;;10.97;;
14748;SDS011;7466;53.574;9.976;2023-04-24T15:03:19;11.73;;;10.87;;
14748;SDS011;7466;53.574;9.976;2023-04-24T15:05:47;11.50;;;10.60;;
14748;SDS011;7466;53.574;9.976;2023-04-24T15:08:15;10.07;;;9.30;;
14748;SDS011;7466;53.574;9.976;2023-04-24T15:10:42;10.83;;;10.03;;
14748;SDS011;7466;53.574;9.976;2023-04-24T15:13:09;10.93;;;10.10;;